Pasadena, Maryland
Current Conditions -  °F | °C
As of 3:54 PM on Sunday 23 Nov 2014 (Local Time) from KBWI Reporting Station
Overcast Overcast  
Wind Chill: 45°   Ceiling: 20000
Heat Index: 49°   Visibility: 10mi
Dew Point: 28°   Wind: 8mph
Humidity: 44%   Direction: 70°ENE
Pressure: 30.11"   Gusts: NA
Location:  39.11°N, 76.57°W
Report Text: KBWI 232054Z 07007KT 10SM FEW038 SCT120 BKN200 OVC250 09/M02 A3011 RMK AO2 SLP195 T00941022 56015
Loading
Personal Weather Stations






























Interactive Weather Map New forecast layout! Learn more

10-Day Weather Forecast

Advertisements
Track Severe Weather on mobile